sensor_id;sensor_type;location;lat;lon;timestamp;temperature;humidity
8002;DHT22;4046;48.774;8.732;2023-05-28T00:00:47;21.50;95.80
8002;DHT22;4046;48.774;8.732;2023-05-28T00:03:14;21.50;95.80
8002;DHT22;4046;48.774;8.732;2023-05-28T00:05:44;21.50;95.80
8002;DHT22;4046;48.774;8.732;2023-05-28T00:08:10;21.50;95.80
8002;DHT22;4046;48.774;8.732;2023-05-28T00:10:37;21.50;95.80
8002;DHT22;4046;48.774;8.732;2023-05-28T00:13:03;21.40;95.80
8002;DHT22;4046;48.774;8.732;2023-05-28T00:15:29;21.40;95.80
8002;DHT22;4046;48.774;8.732;2023-05-28T00:17:55;21.40;95.80
8002;DHT22;4046;48.774;8.732;2023-05-28T00:20:23;21.40;95.80
8002;DHT22;4046;48.774;8.732;2023-05-28T00:22:51;21.40;95.80
8002;DHT22;4046;48.774;8.732;2023-05-28T00:25:17;21.40;95.80
8002;DHT22;4046;48.774;8.732;2023-05-28T00:27:43;21.40;95.80
8002;DHT22;4046;48.774;8.732;2023-05-28T00:30:09;21.50;95.80
8002;DHT22;4046;48.774;8.732;2023-05-28T00:32:36;21.40;95.80
8002;DHT22;4046;48.774;8.732;2023-05-28T00:35:02;21.40;95.70
8002;DHT22;4046;48.774;8.732;2023-05-28T00:37:29;21.40;95.70
8002;DHT22;4046;48.774;8.732;2023-05-28T00:39:55;21.30;95.70
8002;DHT22;4046;48.774;8.732;2023-05-28T00:42:21;21.30;95.70
8002;DHT22;4046;48.774;8.732;2023-05-28T00:44:47;21.30;95.70
8002;DHT22;4046;48.774;8.732;2023-05-28T00:47:14;21.30;95.70
8002;DHT22;4046;48.774;8.732;2023-05-28T00:49:41;21.30;95.70
8002;DHT22;4046;48.774;8.732;2023-05-28T00:52:09;21.30;95.70
8002;DHT22;4046;48.774;8.732;2023-05-28T00:54:38;21.30;95.70
8002;DHT22;4046;48.774;8.732;2023-05-28T00:57:05;21.30;95.70
8002;DHT22;4046;48.774;8.732;2023-05-28T00:59:32;21.30;95.70
8002;DHT22;4046;48.774;8.732;2023-05-28T01:02:00;21.20;95.60
8002;DHT22;4046;48.774;8.732;2023-05-28T01:04:26;21.20;95.60
8002;DHT22;4046;48.774;8.732;2023-05-28T01:06:56;21.20;95.60
8002;DHT22;4046;48.774;8.732;2023-05-28T01:09:24;21.30;95.60
8002;DHT22;4046;48.774;8.732;2023-05-28T01:11:51;21.30;95.60
8002;DHT22;4046;48.774;8.732;2023-05-28T01:14:19;21.20;95.60
8002;DHT22;4046;48.774;8.732;2023-05-28T01:16:46;21.30;95.60
8002;DHT22;4046;48.774;8.732;2023-05-28T01:19:17;21.30;95.60
8002;DHT22;4046;48.774;8.732;2023-05-28T01:21:46;21.20;95.60
8002;DHT22;4046;48.774;8.732;2023-05-28T01:24:14;21.20;95.50
8002;DHT22;4046;48.774;8.732;2023-05-28T01:26:43;21.20;95.50
8002;DHT22;4046;48.774;8.732;2023-05-28T01:29:17;21.20;95.50
8002;DHT22;4046;48.774;8.732;2023-05-28T01:31:44;21.20;95.50
8002;DHT22;4046;48.774;8.732;2023-05-28T01:34:11;21.20;95.50
8002;DHT22;4046;48.774;8.732;2023-05-28T01:36:46;21.20;95.50
8002;DHT22;4046;48.774;8.732;2023-05-28T01:39:15;21.20;95.90
8002;DHT22;4046;48.774;8.732;2023-05-28T01:41:45;21.20;95.50
8002;DHT22;4046;48.774;8.732;2023-05-28T01:44:15;21.20;95.50
8002;DHT22;4046;48.774;8.732;2023-05-28T01:46:46;21.20;95.60
8002;DHT22;4046;48.774;8.732;2023-05-28T01:49:12;21.20;95.50
8002;DHT22;4046;48.774;8.732;2023-05-28T01:51:38;21.20;95.50
8002;DHT22;4046;48.774;8.732;2023-05-28T01:54:05;21.10;95.50
8002;DHT22;4046;48.774;8.732;2023-05-28T01:56:31;21.10;95.40
8002;DHT22;4046;48.774;8.732;2023-05-28T01:58:57;21.10;95.40
8002;DHT22;4046;48.774;8.732;2023-05-28T02:01:33;21.10;95.50
8002;DHT22;4046;48.774;8.732;2023-05-28T02:04:02;21.10;95.40
8002;DHT22;4046;48.774;8.732;2023-05-28T02:06:31;21.10;95.40
8002;DHT22;4046;48.774;8.732;2023-05-28T02:08:58;21.10;95.40
8002;DHT22;4046;48.774;8.732;2023-05-28T02:11:24;21.10;95.40
8002;DHT22;4046;48.774;8.732;2023-05-28T02:13:51;21.10;95.40
8002;DHT22;4046;48.774;8.732;2023-05-28T02:16:18;21.10;95.40
8002;DHT22;4046;48.774;8.732;2023-05-28T02:18:45;21.10;95.40
8002;DHT22;4046;48.774;8.732;2023-05-28T02:21:12;21.10;95.40
8002;DHT22;4046;48.774;8.732;2023-05-28T02:23:42;21.10;95.40
8002;DHT22;4046;48.774;8.732;2023-05-28T02:26:08;21.10;95.30
8002;DHT22;4046;48.774;8.732;2023-05-28T02:28:35;21.10;95.40
8002;DHT22;4046;48.774;8.732;2023-05-28T02:31:01;21.10;95.30
8002;DHT22;4046;48.774;8.732;2023-05-28T02:33:27;21.10;95.30
8002;DHT22;4046;48.774;8.732;2023-05-28T02:35:54;21.10;95.30
8002;DHT22;4046;48.774;8.732;2023-05-28T02:38:21;21.10;95.30
8002;DHT22;4046;48.774;8.732;2023-05-28T02:40:47;21.10;95.30
8002;DHT22;4046;48.774;8.732;2023-05-28T02:43:13;21.00;95.30
8002;DHT22;4046;48.774;8.732;2023-05-28T02:45:39;21.00;95.30
8002;DHT22;4046;48.774;8.732;2023-05-28T02:48:05;21.00;95.20
8002;DHT22;4046;48.774;8.732;2023-05-28T02:50:32;21.00;95.30
8002;DHT22;4046;48.774;8.732;2023-05-28T02:52:58;21.00;95.30
8002;DHT22;4046;48.774;8.732;2023-05-28T02:55:24;21.00;95.20
8002;DHT22;4046;48.774;8.732;2023-05-28T02:57:50;21.00;95.20
8002;DHT22;4046;48.774;8.732;2023-05-28T03:00:19;21.00;95.20
8002;DHT22;4046;48.774;8.732;2023-05-28T03:02:45;21.00;95.20
8002;DHT22;4046;48.774;8.732;2023-05-28T03:05:11;21.00;95.30
8002;DHT22;4046;48.774;8.732;2023-05-28T03:07:38;21.00;95.20
8002;DHT22;4046;48.774;8.732;2023-05-28T03:10:05;21.00;95.20
8002;DHT22;4046;48.774;8.732;2023-05-28T03:12:31;21.00;95.20
8002;DHT22;4046;48.774;8.732;2023-05-28T03:14:57;21.00;95.20
8002;DHT22;4046;48.774;8.732;2023-05-28T03:17:23;20.90;95.10
8002;DHT22;4046;48.774;8.732;2023-05-28T03:19:50;20.90;95.20
8002;DHT22;4046;48.774;8.732;2023-05-28T03:22:16;20.90;95.20
8002;DHT22;4046;48.774;8.732;2023-05-28T03:24:42;20.90;95.20
8002;DHT22;4046;48.774;8.732;2023-05-28T03:27:09;21.00;95.30
8002;DHT22;4046;48.774;8.732;2023-05-28T03:29:35;20.90;95.20
8002;DHT22;4046;48.774;8.732;2023-05-28T03:32:01;20.90;95.20
8002;DHT22;4046;48.774;8.732;2023-05-28T03:34:27;20.90;95.20
8002;DHT22;4046;48.774;8.732;2023-05-28T03:36:54;20.90;95.20
8002;DHT22;4046;48.774;8.732;2023-05-28T03:39:20;20.80;95.10
8002;DHT22;4046;48.774;8.732;2023-05-28T03:41:46;20.80;95.10
8002;DHT22;4046;48.774;8.732;2023-05-28T03:44:14;20.80;95.20
8002;DHT22;4046;48.774;8.732;2023-05-28T03:46:43;20.80;95.10
8002;DHT22;4046;48.774;8.732;2023-05-28T03:49:09;20.80;95.10
8002;DHT22;4046;48.774;8.732;2023-05-28T03:51:36;20.80;95.10
8002;DHT22;4046;48.774;8.732;2023-05-28T03:54:02;20.80;95.10
8002;DHT22;4046;48.774;8.732;2023-05-28T03:56:28;20.80;95.10
8002;DHT22;4046;48.774;8.732;2023-05-28T03:58:55;20.80;95.10
8002;DHT22;4046;48.774;8.732;2023-05-28T04:01:22;20.80;95.10
8002;DHT22;4046;48.774;8.732;2023-05-28T04:03:48;20.80;95.10
8002;DHT22;4046;48.774;8.732;2023-05-28T04:06:14;20.80;95.10
8002;DHT22;4046;48.774;8.732;2023-05-28T04:08:40;20.80;95.10
8002;DHT22;4046;48.774;8.732;2023-05-28T04:11:06;20.80;95.10
8002;DHT22;4046;48.774;8.732;2023-05-28T04:13:33;20.80;95.10
8002;DHT22;4046;48.774;8.732;2023-05-28T04:15:59;20.80;95.10
8002;DHT22;4046;48.774;8.732;2023-05-28T04:18:25;20.80;95.10
8002;DHT22;4046;48.774;8.732;2023-05-28T04:20:52;20.80;95.00
8002;DHT22;4046;48.774;8.732;2023-05-28T04:23:19;20.70;95.00
8002;DHT22;4046;48.774;8.732;2023-05-28T04:25:45;20.70;95.10
8002;DHT22;4046;48.774;8.732;2023-05-28T04:28:12;20.70;95.10
8002;DHT22;4046;48.774;8.732;2023-05-28T04:30:38;20.70;95.10
8002;DHT22;4046;48.774;8.732;2023-05-28T04:33:04;20.70;95.10
8002;DHT22;4046;48.774;8.732;2023-05-28T04:35:32;20.70;95.00
8002;DHT22;4046;48.774;8.732;2023-05-28T04:37:59;20.70;95.10
8002;DHT22;4046;48.774;8.732;2023-05-28T04:40:25;20.70;95.10
8002;DHT22;4046;48.774;8.732;2023-05-28T04:42:51;20.70;95.10
8002;DHT22;4046;48.774;8.732;2023-05-28T04:45:21;20.70;95.10
8002;DHT22;4046;48.774;8.732;2023-05-28T04:47:50;20.70;95.10
8002;DHT22;4046;48.774;8.732;2023-05-28T04:50:16;20.70;95.10
8002;DHT22;4046;48.774;8.732;2023-05-28T04:52:42;20.70;95.10
8002;DHT22;4046;48.774;8.732;2023-05-28T04:55:09;20.70;95.10
8002;DHT22;4046;48.774;8.732;2023-05-28T04:57:35;20.70;95.10
8002;DHT22;4046;48.774;8.732;2023-05-28T05:00:02;20.60;95.30
8002;DHT22;4046;48.774;8.732;2023-05-28T05:02:29;20.60;95.00
8002;DHT22;4046;48.774;8.732;2023-05-28T05:04:55;20.60;95.00
8002;DHT22;4046;48.774;8.732;2023-05-28T05:07:22;20.60;95.00
8002;DHT22;4046;48.774;8.732;2023-05-28T05:09:49;20.60;95.00
8002;DHT22;4046;48.774;8.732;2023-05-28T05:12:15;20.60;95.00
8002;DHT22;4046;48.774;8.732;2023-05-28T05:14:41;20.80;95.10
8002;DHT22;4046;48.774;8.732;2023-05-28T05:17:08;20.60;95.00
8002;DHT22;4046;48.774;8.732;2023-05-28T05:19:34;20.60;95.00
8002;DHT22;4046;48.774;8.732;2023-05-28T05:22:01;20.70;95.10
8002;DHT22;4046;48.774;8.732;2023-05-28T05:24:29;20.60;95.00
8002;DHT22;4046;48.774;8.732;2023-05-28T05:26:55;20.60;95.00
8002;DHT22;4046;48.774;8.732;2023-05-28T05:29:21;20.70;95.10
8002;DHT22;4046;48.774;8.732;2023-05-28T05:31:50;20.50;95.00
8002;DHT22;4046;48.774;8.732;2023-05-28T05:34:16;20.60;95.10
8002;DHT22;4046;48.774;8.732;2023-05-28T05:36:43;20.60;95.00
8002;DHT22;4046;48.774;8.732;2023-05-28T05:39:09;20.60;95.00
8002;DHT22;4046;48.774;8.732;2023-05-28T05:41:35;20.60;95.00
8002;DHT22;4046;48.774;8.732;2023-05-28T05:44:01;20.60;95.00
8002;DHT22;4046;48.774;8.732;2023-05-28T05:46:28;20.60;95.00
8002;DHT22;4046;48.774;8.732;2023-05-28T05:48:54;20.60;95.00
8002;DHT22;4046;48.774;8.732;2023-05-28T05:51:20;20.70;95.00
8002;DHT22;4046;48.774;8.732;2023-05-28T05:53:46;20.70;95.00
8002;DHT22;4046;48.774;8.732;2023-05-28T05:56:12;20.70;95.00
8002;DHT22;4046;48.774;8.732;2023-05-28T05:58:39;20.70;95.00
8002;DHT22;4046;48.774;8.732;2023-05-28T06:01:05;20.70;95.00
8002;DHT22;4046;48.774;8.732;2023-05-28T06:03:31;20.70;95.00
8002;DHT22;4046;48.774;8.732;2023-05-28T06:05:58;20.70;95.00
8002;DHT22;4046;48.774;8.732;2023-05-28T06:08:24;20.70;95.00
8002;DHT22;4046;48.774;8.732;2023-05-28T06:10:50;20.70;95.00
8002;DHT22;4046;48.774;8.732;2023-05-28T06:13:17;20.70;95.00
8002;DHT22;4046;48.774;8.732;2023-05-28T06:15:44;20.70;95.10
8002;DHT22;4046;48.774;8.732;2023-05-28T06:18:10;20.70;95.10
8002;DHT22;4046;48.774;8.732;2023-05-28T06:20:37;20.70;95.10
8002;DHT22;4046;48.774;8.732;2023-05-28T06:23:04;20.70;95.00
8002;DHT22;4046;48.774;8.732;2023-05-28T06:25:30;20.70;95.10
8002;DHT22;4046;48.774;8.732;2023-05-28T06:27:56;20.70;95.10
8002;DHT22;4046;48.774;8.732;2023-05-28T06:30:23;20.70;95.00
8002;DHT22;4046;48.774;8.732;2023-05-28T06:32:49;20.70;95.00
8002;DHT22;4046;48.774;8.732;2023-05-28T06:35:15;20.70;95.00
8002;DHT22;4046;48.774;8.732;2023-05-28T06:37:41;20.70;95.00
8002;DHT22;4046;48.774;8.732;2023-05-28T06:40:08;20.80;95.00
8002;DHT22;4046;48.774;8.732;2023-05-28T06:42:36;20.80;95.00
8002;DHT22;4046;48.774;8.732;2023-05-28T06:45:05;20.80;95.00
8002;DHT22;4046;48.774;8.732;2023-05-28T06:47:31;20.80;95.40
8002;DHT22;4046;48.774;8.732;2023-05-28T06:49:58;20.80;95.10
8002;DHT22;4046;48.774;8.732;2023-05-28T06:52:24;20.80;95.10
8002;DHT22;4046;48.774;8.732;2023-05-28T06:54:51;20.80;95.00
8002;DHT22;4046;48.774;8.732;2023-05-28T06:57:17;20.80;95.00
8002;DHT22;4046;48.774;8.732;2023-05-28T06:59:43;20.80;95.10
8002;DHT22;4046;48.774;8.732;2023-05-28T07:02:09;20.80;95.10
8002;DHT22;4046;48.774;8.732;2023-05-28T07:04:37;20.80;95.10
8002;DHT22;4046;48.774;8.732;2023-05-28T07:07:04;21.00;95.20
8002;DHT22;4046;48.774;8.732;2023-05-28T07:09:31;20.80;95.10
8002;DHT22;4046;48.774;8.732;2023-05-28T07:11:57;20.80;95.10
8002;DHT22;4046;48.774;8.732;2023-05-28T07:14:23;20.80;95.10
8002;DHT22;4046;48.774;8.732;2023-05-28T07:16:51;20.80;95.10
8002;DHT22;4046;48.774;8.732;2023-05-28T07:19:17;20.80;95.20
8002;DHT22;4046;48.774;8.732;2023-05-28T07:21:46;20.80;95.20
8002;DHT22;4046;48.774;8.732;2023-05-28T07:24:12;20.80;95.20
8002;DHT22;4046;48.774;8.732;2023-05-28T07:26:38;20.80;95.20
8002;DHT22;4046;48.774;8.732;2023-05-28T07:29:05;20.80;95.20
8002;DHT22;4046;48.774;8.732;2023-05-28T07:31:31;20.80;95.30
8002;DHT22;4046;48.774;8.732;2023-05-28T07:33:57;20.80;95.30
8002;DHT22;4046;48.774;8.732;2023-05-28T07:36:24;20.80;95.20
8002;DHT22;4046;48.774;8.732;2023-05-28T07:38:50;20.80;95.20
8002;DHT22;4046;48.774;8.732;2023-05-28T07:41:16;20.80;95.20
8002;DHT22;4046;48.774;8.732;2023-05-28T07:43:43;20.80;95.20
8002;DHT22;4046;48.774;8.732;2023-05-28T07:46:09;20.80;95.20
8002;DHT22;4046;48.774;8.732;2023-05-28T07:48:35;20.80;95.30
8002;DHT22;4046;48.774;8.732;2023-05-28T07:51:01;20.90;95.30
8002;DHT22;4046;48.774;8.732;2023-05-28T07:53:28;20.80;95.30
8002;DHT22;4046;48.774;8.732;2023-05-28T07:55:54;20.80;95.30
8002;DHT22;4046;48.774;8.732;2023-05-28T07:58:21;20.80;95.30
8002;DHT22;4046;48.774;8.732;2023-05-28T08:00:47;20.80;95.30
8002;DHT22;4046;48.774;8.732;2023-05-28T08:03:13;20.80;95.30
8002;DHT22;4046;48.774;8.732;2023-05-28T08:05:40;20.80;95.30
8002;DHT22;4046;48.774;8.732;2023-05-28T08:08:06;20.80;95.30
8002;DHT22;4046;48.774;8.732;2023-05-28T08:10:32;20.80;95.30
8002;DHT22;4046;48.774;8.732;2023-05-28T08:12:59;20.80;95.40
8002;DHT22;4046;48.774;8.732;2023-05-28T08:15:25;20.80;95.30
8002;DHT22;4046;48.774;8.732;2023-05-28T08:17:51;20.80;95.30
8002;DHT22;4046;48.774;8.732;2023-05-28T08:20:17;20.80;95.30
8002;DHT22;4046;48.774;8.732;2023-05-28T08:22:43;20.80;95.30
8002;DHT22;4046;48.774;8.732;2023-05-28T08:25:10;20.90;95.30
8002;DHT22;4046;48.774;8.732;2023-05-28T08:27:36;20.90;95.30
8002;DHT22;4046;48.774;8.732;2023-05-28T08:30:03;20.90;95.30
8002;DHT22;4046;48.774;8.732;2023-05-28T08:32:29;20.90;95.30
8002;DHT22;4046;48.774;8.732;2023-05-28T08:34:56;21.00;95.30
8002;DHT22;4046;48.774;8.732;2023-05-28T08:37:22;21.00;95.30
8002;DHT22;4046;48.774;8.732;2023-05-28T08:39:48;21.00;95.20
8002;DHT22;4046;48.774;8.732;2023-05-28T08:42:14;21.10;95.20
8002;DHT22;4046;48.774;8.732;2023-05-28T08:44:41;21.10;95.20
8002;DHT22;4046;48.774;8.732;2023-05-28T08:47:07;21.10;95.20
8002;DHT22;4046;48.774;8.732;2023-05-28T08:49:51;21.10;95.20
8002;DHT22;4046;48.774;8.732;2023-05-28T08:52:22;21.20;95.20
8002;DHT22;4046;48.774;8.732;2023-05-28T08:54:50;21.20;95.10
8002;DHT22;4046;48.774;8.732;2023-05-28T08:57:17;21.20;95.10
8002;DHT22;4046;48.774;8.732;2023-05-28T08:59:44;21.20;95.00
8002;DHT22;4046;48.774;8.732;2023-05-28T09:02:12;21.30;94.70
8002;DHT22;4046;48.774;8.732;2023-05-28T09:04:38;21.30;94.60
8002;DHT22;4046;48.774;8.732;2023-05-28T09:07:04;21.40;94.50
8002;DHT22;4046;48.774;8.732;2023-05-28T09:09:32;21.40;94.10
8002;DHT22;4046;48.774;8.732;2023-05-28T09:12:03;21.40;94.10
8002;DHT22;4046;48.774;8.732;2023-05-28T09:14:38;21.50;94.00
8002;DHT22;4046;48.774;8.732;2023-05-28T09:17:05;21.50;93.90
8002;DHT22;4046;48.774;8.732;2023-05-28T09:19:32;21.50;94.20
8002;DHT22;4046;48.774;8.732;2023-05-28T09:21:58;21.60;94.10
8002;DHT22;4046;48.774;8.732;2023-05-28T09:24:28;21.60;94.00
8002;DHT22;4046;48.774;8.732;2023-05-28T09:26:57;21.60;93.60
8002;DHT22;4046;48.774;8.732;2023-05-28T09:29:25;21.70;93.30
8002;DHT22;4046;48.774;8.732;2023-05-28T09:31:59;21.70;93.00
8002;DHT22;4046;48.774;8.732;2023-05-28T09:34:29;21.70;93.00
8002;DHT22;4046;48.774;8.732;2023-05-28T09:37:15;21.80;92.90
8002;DHT22;4046;48.774;8.732;2023-05-28T09:39:43;21.80;92.90
8002;DHT22;4046;48.774;8.732;2023-05-28T09:42:10;21.90;93.10
8002;DHT22;4046;48.774;8.732;2023-05-28T09:44:38;21.90;93.10
8002;DHT22;4046;48.774;8.732;2023-05-28T09:47:18;21.90;93.10
8002;DHT22;4046;48.774;8.732;2023-05-28T09:49:47;22.00;92.90
8002;DHT22;4046;48.774;8.732;2023-05-28T09:52:20;22.00;92.80
8002;DHT22;4046;48.774;8.732;2023-05-28T09:54:51;22.00;92.80
8002;DHT22;4046;48.774;8.732;2023-05-28T09:57:23;22.00;92.70
8002;DHT22;4046;48.774;8.732;2023-05-28T09:59:53;22.10;92.70
8002;DHT22;4046;48.774;8.732;2023-05-28T10:02:38;22.10;93.00
8002;DHT22;4046;48.774;8.732;2023-05-28T10:05:10;22.10;92.80
8002;DHT22;4046;48.774;8.732;2023-05-28T10:07:40;22.10;92.80
8002;DHT22;4046;48.774;8.732;2023-05-28T10:10:08;22.10;92.50
8002;DHT22;4046;48.774;8.732;2023-05-28T10:12:36;22.10;92.40
8002;DHT22;4046;48.774;8.732;2023-05-28T10:15:03;22.10;92.50
8002;DHT22;4046;48.774;8.732;2023-05-28T10:17:30;22.10;92.50
8002;DHT22;4046;48.774;8.732;2023-05-28T10:19:56;22.10;92.60
8002;DHT22;4046;48.774;8.732;2023-05-28T10:22:22;22.20;92.50
8002;DHT22;4046;48.774;8.732;2023-05-28T10:24:49;22.20;92.60
8002;DHT22;4046;48.774;8.732;2023-05-28T10:27:16;22.20;92.30
8002;DHT22;4046;48.774;8.732;2023-05-28T10:29:44;22.20;92.20
8002;DHT22;4046;48.774;8.732;2023-05-28T10:32:15;22.20;92.30
8002;DHT22;4046;48.774;8.732;2023-05-28T10:34:43;22.20;92.20
8002;DHT22;4046;48.774;8.732;2023-05-28T10:37:10;22.20;92.10
8002;DHT22;4046;48.774;8.732;2023-05-28T10:39:44;22.20;92.20
8002;DHT22;4046;48.774;8.732;2023-05-28T10:42:15;22.30;92.40
8002;DHT22;4046;48.774;8.732;2023-05-28T10:47:37;22.40;92.70
8002;DHT22;4046;48.774;8.732;2023-05-28T10:50:14;22.40;92.50
8002;DHT22;4046;48.774;8.732;2023-05-28T10:52:41;22.50;92.40
8002;DHT22;4046;48.774;8.732;2023-05-28T10:55:09;22.50;92.50
8002;DHT22;4046;48.774;8.732;2023-05-28T10:57:47;22.50;92.50
8002;DHT22;4046;48.774;8.732;2023-05-28T11:00:24;22.60;92.70
8002;DHT22;4046;48.774;8.732;2023-05-28T11:02:54;22.50;92.50
8002;DHT22;4046;48.774;8.732;2023-05-28T11:05:24;22.60;92.60
8002;DHT22;4046;48.774;8.732;2023-05-28T11:07:51;22.60;92.40
8002;DHT22;4046;48.774;8.732;2023-05-28T11:10:19;22.70;92.20
8002;DHT22;4046;48.774;8.732;2023-05-28T11:12:45;22.60;92.10
8002;DHT22;4046;48.774;8.732;2023-05-28T11:15:13;22.70;92.20
8002;DHT22;4046;48.774;8.732;2023-05-28T11:17:40;22.70;92.20
8002;DHT22;4046;48.774;8.732;2023-05-28T11:20:17;22.70;92.00
8002;DHT22;4046;48.774;8.732;2023-05-28T11:22:44;22.70;91.80
8002;DHT22;4046;48.774;8.732;2023-05-28T11:25:11;22.70;91.70
8002;DHT22;4046;48.774;8.732;2023-05-28T11:27:38;22.60;91.60
8002;DHT22;4046;48.774;8.732;2023-05-28T11:30:13;22.60;91.80
8002;DHT22;4046;48.774;8.732;2023-05-28T11:32:40;22.70;91.90
8002;DHT22;4046;48.774;8.732;2023-05-28T11:35:10;22.70;91.40
8002;DHT22;4046;48.774;8.732;2023-05-28T11:37:38;22.60;91.30
8002;DHT22;4046;48.774;8.732;2023-05-28T11:40:06;22.70;91.20
8002;DHT22;4046;48.774;8.732;2023-05-28T11:42:40;22.70;91.50
8002;DHT22;4046;48.774;8.732;2023-05-28T11:45:08;22.70;91.50
8002;DHT22;4046;48.774;8.732;2023-05-28T11:47:36;22.70;91.40
8002;DHT22;4046;48.774;8.732;2023-05-28T11:50:10;22.70;91.30
8002;DHT22;4046;48.774;8.732;2023-05-28T11:52:36;22.70;91.30
8002;DHT22;4046;48.774;8.732;2023-05-28T11:55:02;22.70;91.50
8002;DHT22;4046;48.774;8.732;2023-05-28T11:57:31;22.70;91.40
8002;DHT22;4046;48.774;8.732;2023-05-28T12:00:06;22.70;91.30
8002;DHT22;4046;48.774;8.732;2023-05-28T12:05:09;22.80;91.00
8002;DHT22;4046;48.774;8.732;2023-05-28T12:07:44;22.80;91.00
8002;DHT22;4046;48.774;8.732;2023-05-28T12:10:13;22.90;91.10
8002;DHT22;4046;48.774;8.732;2023-05-28T12:12:42;22.80;90.90
8002;DHT22;4046;48.774;8.732;2023-05-28T12:15:08;22.90;90.80
8002;DHT22;4046;48.774;8.732;2023-05-28T12:17:36;22.80;90.60
8002;DHT22;4046;48.774;8.732;2023-05-28T12:23:05;22.80;90.80
8002;DHT22;4046;48.774;8.732;2023-05-28T12:25:46;22.90;90.90
8002;DHT22;4046;48.774;8.732;2023-05-28T12:28:19;22.90;90.90
8002;DHT22;4046;48.774;8.732;2023-05-28T12:30:49;22.90;91.10
8002;DHT22;4046;48.774;8.732;2023-05-28T12:33:17;22.90;91.10
8002;DHT22;4046;48.774;8.732;2023-05-28T12:35:43;22.90;91.00
8002;DHT22;4046;48.774;8.732;2023-05-28T12:38:09;22.90;91.00
8002;DHT22;4046;48.774;8.732;2023-05-28T12:40:35;22.90;90.90
8002;DHT22;4046;48.774;8.732;2023-05-28T12:43:02;23.00;91.00
8002;DHT22;4046;48.774;8.732;2023-05-28T12:45:29;23.00;91.10
8002;DHT22;4046;48.774;8.732;2023-05-28T12:47:55;23.00;91.10
8002;DHT22;4046;48.774;8.732;2023-05-28T12:50:21;23.00;91.30
8002;DHT22;4046;48.774;8.732;2023-05-28T12:52:50;23.00;91.40
8002;DHT22;4046;48.774;8.732;2023-05-28T12:55:17;23.00;91.40
8002;DHT22;4046;48.774;8.732;2023-05-28T12:57:44;23.10;91.60
8002;DHT22;4046;48.774;8.732;2023-05-28T13:00:10;23.10;91.70
8002;DHT22;4046;48.774;8.732;2023-05-28T13:02:37;23.00;91.70
8002;DHT22;4046;48.774;8.732;2023-05-28T13:05:04;23.00;91.80
8002;DHT22;4046;48.774;8.732;2023-05-28T13:07:31;23.00;91.60
8002;DHT22;4046;48.774;8.732;2023-05-28T13:09:57;23.00;91.40
8002;DHT22;4046;48.774;8.732;2023-05-28T13:12:24;23.00;91.30
8002;DHT22;4046;48.774;8.732;2023-05-28T13:14:50;23.00;91.40
8002;DHT22;4046;48.774;8.732;2023-05-28T13:17:16;23.00;91.50
8002;DHT22;4046;48.774;8.732;2023-05-28T13:19:42;23.00;91.50
8002;DHT22;4046;48.774;8.732;2023-05-28T13:22:08;23.00;91.60
8002;DHT22;4046;48.774;8.732;2023-05-28T13:24:38;23.00;91.50
8002;DHT22;4046;48.774;8.732;2023-05-28T13:27:05;23.00;91.60
8002;DHT22;4046;48.774;8.732;2023-05-28T13:29:31;23.00;91.60
8002;DHT22;4046;48.774;8.732;2023-05-28T13:31:57;23.00;91.60
8002;DHT22;4046;48.774;8.732;2023-05-28T13:34:23;23.10;91.70
8002;DHT22;4046;48.774;8.732;2023-05-28T13:36:50;23.10;91.60
8002;DHT22;4046;48.774;8.732;2023-05-28T13:39:16;23.10;91.70
8002;DHT22;4046;48.774;8.732;2023-05-28T13:41:42;23.10;91.70
8002;DHT22;4046;48.774;8.732;2023-05-28T13:44:10;23.10;91.80
8002;DHT22;4046;48.774;8.732;2023-05-28T13:46:39;23.10;91.80
8002;DHT22;4046;48.774;8.732;2023-05-28T13:49:05;23.10;91.80
8002;DHT22;4046;48.774;8.732;2023-05-28T13:51:32;23.10;91.80
8002;DHT22;4046;48.774;8.732;2023-05-28T13:53:58;23.10;91.90
8002;DHT22;4046;48.774;8.732;2023-05-28T13:56:24;23.10;91.70
8002;DHT22;4046;48.774;8.732;2023-05-28T13:58:50;23.10;91.50
8002;DHT22;4046;48.774;8.732;2023-05-28T14:01:16;23.10;91.50
8002;DHT22;4046;48.774;8.732;2023-05-28T14:03:42;23.20;91.50
8002;DHT22;4046;48.774;8.732;2023-05-28T14:06:11;23.20;91.50
8002;DHT22;4046;48.774;8.732;2023-05-28T14:08:37;23.20;91.30
8002;DHT22;4046;48.774;8.732;2023-05-28T14:11:03;23.20;91.10
8002;DHT22;4046;48.774;8.732;2023-05-28T14:13:29;23.20;90.90
8002;DHT22;4046;48.774;8.732;2023-05-28T14:16:00;23.20;90.90
8002;DHT22;4046;48.774;8.732;2023-05-28T14:18:26;23.20;91.00
8002;DHT22;4046;48.774;8.732;2023-05-28T14:20:53;23.20;90.80
8002;DHT22;4046;48.774;8.732;2023-05-28T14:23:19;23.20;90.80
8002;DHT22;4046;48.774;8.732;2023-05-28T14:25:48;23.20;90.80
8002;DHT22;4046;48.774;8.732;2023-05-28T14:28:14;23.20;90.90
8002;DHT22;4046;48.774;8.732;2023-05-28T14:30:41;23.20;91.00
8002;DHT22;4046;48.774;8.732;2023-05-28T14:33:10;23.20;91.00
8002;DHT22;4046;48.774;8.732;2023-05-28T14:35:38;23.20;91.30
8002;DHT22;4046;48.774;8.732;2023-05-28T14:38:05;23.40;91.30
8002;DHT22;4046;48.774;8.732;2023-05-28T14:40:31;23.20;91.10
8002;DHT22;4046;48.774;8.732;2023-05-28T14:42:57;23.20;90.80
8002;DHT22;4046;48.774;8.732;2023-05-28T14:45:23;23.20;91.20
8002;DHT22;4046;48.774;8.732;2023-05-28T14:47:51;23.20;90.80
8002;DHT22;4046;48.774;8.732;2023-05-28T14:50:17;23.30;91.30
8002;DHT22;4046;48.774;8.732;2023-05-28T14:52:43;23.40;90.90
8002;DHT22;4046;48.774;8.732;2023-05-28T14:55:10;23.30;90.80
8002;DHT22;4046;48.774;8.732;2023-05-28T14:57:36;23.30;90.90
8002;DHT22;4046;48.774;8.732;2023-05-28T15:00:07;23.20;90.90
8002;DHT22;4046;48.774;8.732;2023-05-28T15:02:36;23.30;90.80
8002;DHT22;4046;48.774;8.732;2023-05-28T15:05:03;23.30;90.80
8002;DHT22;4046;48.774;8.732;2023-05-28T15:07:31;23.30;90.80
8002;DHT22;4046;48.774;8.732;2023-05-28T15:09:57;23.20;90.90
8002;DHT22;4046;48.774;8.732;2023-05-28T15:12:24;23.30;90.90
8002;DHT22;4046;48.774;8.732;2023-05-28T15:14:50;23.20;90.90
8002;DHT22;4046;48.774;8.732;2023-05-28T15:17:17;23.20;90.90
8002;DHT22;4046;48.774;8.732;2023-05-28T15:19:43;23.30;91.00
8002;DHT22;4046;48.774;8.732;2023-05-28T15:22:09;23.30;91.00
8002;DHT22;4046;48.774;8.732;2023-05-28T15:24:35;23.30;90.90
8002;DHT22;4046;48.774;8.732;2023-05-28T15:27:02;23.20;91.00
8002;DHT22;4046;48.774;8.732;2023-05-28T15:29:29;23.20;90.80
8002;DHT22;4046;48.774;8.732;2023-05-28T15:31:57;23.20;90.70
8002;DHT22;4046;48.774;8.732;2023-05-28T15:34:26;23.20;90.50
8002;DHT22;4046;48.774;8.732;2023-05-28T15:36:52;23.20;90.50
8002;DHT22;4046;48.774;8.732;2023-05-28T15:39:19;23.20;90.50
8002;DHT22;4046;48.774;8.732;2023-05-28T15:41:45;23.30;90.60
8002;DHT22;4046;48.774;8.732;2023-05-28T15:44:12;23.30;90.70
8002;DHT22;4046;48.774;8.732;2023-05-28T15:46:38;23.30;90.70
8002;DHT22;4046;48.774;8.732;2023-05-28T15:49:05;23.30;90.70
8002;DHT22;4046;48.774;8.732;2023-05-28T15:51:31;23.30;90.60
8002;DHT22;4046;48.774;8.732;2023-05-28T15:53:58;23.30;90.80
8002;DHT22;4046;48.774;8.732;2023-05-28T15:56:24;23.30;90.80
8002;DHT22;4046;48.774;8.732;2023-05-28T15:58:51;23.20;90.70
8002;DHT22;4046;48.774;8.732;2023-05-28T16:01:18;23.20;90.60
8002;DHT22;4046;48.774;8.732;2023-05-28T16:03:46;23.20;90.90
8002;DHT22;4046;48.774;8.732;2023-05-28T16:06:13;23.20;90.50
8002;DHT22;4046;48.774;8.732;2023-05-28T16:08:39;23.20;90.40
8002;DHT22;4046;48.774;8.732;2023-05-28T16:11:07;23.10;90.30